sensor_id;sensor_type;location;lat;lon;timestamp;pressure;altitude;pressure_sealevel;temperature
29423;BMP180;16399;51.686;8.684;2023-04-28T00:02:59;99788.00;;;9.80
29423;BMP180;16399;51.686;8.684;2023-04-28T00:06:01;99789.00;;;9.80
29423;BMP180;16399;51.686;8.684;2023-04-28T00:09:04;99784.00;;;9.80
29423;BMP180;16399;51.686;8.684;2023-04-28T00:12:06;99778.00;;;9.80
29423;BMP180;16399;51.686;8.684;2023-04-28T00:15:09;99777.00;;;9.80
29423;BMP180;16399;51.686;8.684;2023-04-28T00:18:11;99775.00;;;9.80
29423;BMP180;16399;51.686;8.684;2023-04-28T00:21:13;99774.00;;;9.80
29423;BMP180;16399;51.686;8.684;2023-04-28T00:24:16;99766.00;;;9.80
29423;BMP180;16399;51.686;8.684;2023-04-28T00:27:18;99762.00;;;9.80
29423;BMP180;16399;51.686;8.684;2023-04-28T00:30:21;99721.00;;;9.80
29423;BMP180;16399;51.686;8.684;2023-04-28T00:33:24;99744.00;;;9.80
29423;BMP180;16399;51.686;8.684;2023-04-28T00:36:27;99751.00;;;9.80
29423;BMP180;16399;51.686;8.684;2023-04-28T00:39:31;99740.00;;;9.80
29423;BMP180;16399;51.686;8.684;2023-04-28T00:42:33;99755.00;;;9.80
29423;BMP180;16399;51.686;8.684;2023-04-28T00:45:35;99736.00;;;9.80
29423;BMP180;16399;51.686;8.684;2023-04-28T00:48:38;99735.00;;;9.80
29423;BMP180;16399;51.686;8.684;2023-04-28T00:51:40;99744.00;;;9.80
29423;BMP180;16399;51.686;8.684;2023-04-28T00:54:42;99737.00;;;9.90
29423;BMP180;16399;51.686;8.684;2023-04-28T00:57:45;99737.00;;;9.90
29423;BMP180;16399;51.686;8.684;2023-04-28T01:00:47;99732.00;;;9.90
29423;BMP180;16399;51.686;8.684;2023-04-28T01:03:50;99722.00;;;9.80
29423;BMP180;16399;51.686;8.684;2023-04-28T01:06:53;99715.00;;;9.90
29423;BMP180;16399;51.686;8.684;2023-04-28T01:09:56;99711.00;;;9.80
29423;BMP180;16399;51.686;8.684;2023-04-28T01:12:58;99713.00;;;9.80
29423;BMP180;16399;51.686;8.684;2023-04-28T01:16:01;99710.00;;;9.80
29423;BMP180;16399;51.686;8.684;2023-04-28T01:19:06;99708.00;;;9.90
29423;BMP180;16399;51.686;8.684;2023-04-28T01:22:08;99702.00;;;9.80
29423;BMP180;16399;51.686;8.684;2023-04-28T01:25:17;99705.00;;;9.90
29423;BMP180;16399;51.686;8.684;2023-04-28T01:28:19;99694.00;;;9.90
29423;BMP180;16399;51.686;8.684;2023-04-28T01:31:21;99696.00;;;9.90
29423;BMP180;16399;51.686;8.684;2023-04-28T01:34:24;99687.00;;;9.90
29423;BMP180;16399;51.686;8.684;2023-04-28T01:37:26;99679.00;;;9.90
29423;BMP180;16399;51.686;8.684;2023-04-28T01:40:28;99681.00;;;9.90
29423;BMP180;16399;51.686;8.684;2023-04-28T01:43:31;99683.00;;;9.90
29423;BMP180;16399;51.686;8.684;2023-04-28T01:46:33;99679.00;;;9.90
29423;BMP180;16399;51.686;8.684;2023-04-28T01:49:36;99664.00;;;9.90
29423;BMP180;16399;51.686;8.684;2023-04-28T01:52:38;99666.00;;;9.90
29423;BMP180;16399;51.686;8.684;2023-04-28T01:55:41;99665.00;;;9.90
29423;BMP180;16399;51.686;8.684;2023-04-28T01:58:43;99664.00;;;9.90
29423;BMP180;16399;51.686;8.684;2023-04-28T02:01:46;99662.00;;;10.00
29423;BMP180;16399;51.686;8.684;2023-04-28T02:04:48;99655.00;;;10.00
29423;BMP180;16399;51.686;8.684;2023-04-28T02:07:51;99664.00;;;10.00
29423;BMP180;16399;51.686;8.684;2023-04-28T02:10:53;99650.00;;;10.00
29423;BMP180;16399;51.686;8.684;2023-04-28T02:13:57;99650.00;;;10.00
29423;BMP180;16399;51.686;8.684;2023-04-28T02:16:59;99647.00;;;10.00
29423;BMP180;16399;51.686;8.684;2023-04-28T02:20:03;99639.00;;;10.00
29423;BMP180;16399;51.686;8.684;2023-04-28T02:23:06;99645.00;;;10.00
29423;BMP180;16399;51.686;8.684;2023-04-28T02:26:08;99629.00;;;10.00
29423;BMP180;16399;51.686;8.684;2023-04-28T02:29:11;99644.00;;;10.00
29423;BMP180;16399;51.686;8.684;2023-04-28T02:32:13;99647.00;;;10.00
29423;BMP180;16399;51.686;8.684;2023-04-28T02:35:15;99638.00;;;9.90
29423;BMP180;16399;51.686;8.684;2023-04-28T02:38:18;99639.00;;;9.90
29423;BMP180;16399;51.686;8.684;2023-04-28T02:41:20;99641.00;;;9.90
29423;BMP180;16399;51.686;8.684;2023-04-28T02:44:23;99641.00;;;9.90
29423;BMP180;16399;51.686;8.684;2023-04-28T02:47:25;99638.00;;;9.90
29423;BMP180;16399;51.686;8.684;2023-04-28T02:50:28;99643.00;;;9.90
29423;BMP180;16399;51.686;8.684;2023-04-28T02:53:30;99635.00;;;9.90
29423;BMP180;16399;51.686;8.684;2023-04-28T02:56:33;99626.00;;;9.90
29423;BMP180;16399;51.686;8.684;2023-04-28T02:59:36;99625.00;;;9.90
29423;BMP180;16399;51.686;8.684;2023-04-28T03:02:38;99630.00;;;9.90
29423;BMP180;16399;51.686;8.684;2023-04-28T03:05:40;99609.00;;;9.90
29423;BMP180;16399;51.686;8.684;2023-04-28T03:08:42;99599.00;;;9.90
29423;BMP180;16399;51.686;8.684;2023-04-28T03:11:45;99602.00;;;9.90
29423;BMP180;16399;51.686;8.684;2023-04-28T03:14:47;99591.00;;;9.90
29423;BMP180;16399;51.686;8.684;2023-04-28T03:17:49;99599.00;;;9.90
29423;BMP180;16399;51.686;8.684;2023-04-28T03:20:51;99603.00;;;9.90
29423;BMP180;16399;51.686;8.684;2023-04-28T03:23:54;99596.00;;;9.80
29423;BMP180;16399;51.686;8.684;2023-04-28T03:26:56;99587.00;;;9.80
29423;BMP180;16399;51.686;8.684;2023-04-28T03:29:58;99583.00;;;9.80
29423;BMP180;16399;51.686;8.684;2023-04-28T03:33:01;99582.00;;;9.80
29423;BMP180;16399;51.686;8.684;2023-04-28T03:36:03;99582.00;;;9.90
29423;BMP180;16399;51.686;8.684;2023-04-28T03:39:05;99584.00;;;9.80
29423;BMP180;16399;51.686;8.684;2023-04-28T03:42:08;99578.00;;;9.80
29423;BMP180;16399;51.686;8.684;2023-04-28T03:45:10;99569.00;;;9.80
29423;BMP180;16399;51.686;8.684;2023-04-28T03:48:13;99569.00;;;9.80
29423;BMP180;16399;51.686;8.684;2023-04-28T03:51:15;99566.00;;;9.80
29423;BMP180;16399;51.686;8.684;2023-04-28T03:54:18;99564.00;;;9.80
29423;BMP180;16399;51.686;8.684;2023-04-28T03:57:20;99567.00;;;9.80
29423;BMP180;16399;51.686;8.684;2023-04-28T04:00:22;99569.00;;;9.80
29423;BMP180;16399;51.686;8.684;2023-04-28T04:03:25;99565.00;;;9.80
29423;BMP180;16399;51.686;8.684;2023-04-28T04:06:27;99570.00;;;9.80
29423;BMP180;16399;51.686;8.684;2023-04-28T04:09:29;99566.00;;;9.80
29423;BMP180;16399;51.686;8.684;2023-04-28T04:12:32;99576.00;;;9.80
29423;BMP180;16399;51.686;8.684;2023-04-28T04:15:34;99575.00;;;9.80
29423;BMP180;16399;51.686;8.684;2023-04-28T04:18:36;99580.00;;;9.80
29423;BMP180;16399;51.686;8.684;2023-04-28T04:21:39;99573.00;;;9.80
29423;BMP180;16399;51.686;8.684;2023-04-28T04:24:41;99593.00;;;9.80
29423;BMP180;16399;51.686;8.684;2023-04-28T04:27:43;99594.00;;;9.80
29423;BMP180;16399;51.686;8.684;2023-04-28T04:30:46;99589.00;;;9.70
29423;BMP180;16399;51.686;8.684;2023-04-28T04:33:48;99589.00;;;9.70
29423;BMP180;16399;51.686;8.684;2023-04-28T04:36:50;99574.00;;;9.60
29423;BMP180;16399;51.686;8.684;2023-04-28T04:39:52;99579.00;;;9.50
29423;BMP180;16399;51.686;8.684;2023-04-28T04:42:55;99580.00;;;9.40
29423;BMP180;16399;51.686;8.684;2023-04-28T04:45:57;99591.00;;;9.30
29423;BMP180;16399;51.686;8.684;2023-04-28T04:48:59;99591.00;;;9.20
29423;BMP180;16399;51.686;8.684;2023-04-28T04:52:02;99592.00;;;9.20
29423;BMP180;16399;51.686;8.684;2023-04-28T04:55:04;99574.00;;;9.10
29423;BMP180;16399;51.686;8.684;2023-04-28T04:58:07;99575.00;;;9.10
29423;BMP180;16399;51.686;8.684;2023-04-28T05:01:09;99573.00;;;9.10
29423;BMP180;16399;51.686;8.684;2023-04-28T05:04:11;99571.00;;;9.10
29423;BMP180;16399;51.686;8.684;2023-04-28T05:07:14;99575.00;;;9.10
29423;BMP180;16399;51.686;8.684;2023-04-28T05:10:16;99573.00;;;9.00
29423;BMP180;16399;51.686;8.684;2023-04-28T05:13:18;99565.00;;;9.00
29423;BMP180;16399;51.686;8.684;2023-04-28T05:16:20;99566.00;;;9.00
29423;BMP180;16399;51.686;8.684;2023-04-28T05:19:23;99556.00;;;8.90
29423;BMP180;16399;51.686;8.684;2023-04-28T05:22:25;99553.00;;;9.00
29423;BMP180;16399;51.686;8.684;2023-04-28T05:25:28;99538.00;;;9.00
29423;BMP180;16399;51.686;8.684;2023-04-28T05:28:30;99549.00;;;9.00
29423;BMP180;16399;51.686;8.684;2023-04-28T05:31:33;99550.00;;;9.10
29423;BMP180;16399;51.686;8.684;2023-04-28T05:34:35;99543.00;;;9.20
29423;BMP180;16399;51.686;8.684;2023-04-28T05:37:37;99536.00;;;9.20
29423;BMP180;16399;51.686;8.684;2023-04-28T05:40:40;99545.00;;;9.30
29423;BMP180;16399;51.686;8.684;2023-04-28T05:43:42;99545.00;;;9.30
29423;BMP180;16399;51.686;8.684;2023-04-28T05:46:44;99540.00;;;9.30
29423;BMP180;16399;51.686;8.684;2023-04-28T05:49:47;99530.00;;;9.40
29423;BMP180;16399;51.686;8.684;2023-04-28T05:52:49;99531.00;;;9.50
29423;BMP180;16399;51.686;8.684;2023-04-28T05:55:51;99533.00;;;9.60
29423;BMP180;16399;51.686;8.684;2023-04-28T05:58:53;99531.00;;;9.60
29423;BMP180;16399;51.686;8.684;2023-04-28T06:01:56;99536.00;;;9.70
29423;BMP180;16399;51.686;8.684;2023-04-28T06:04:58;99536.00;;;9.80
29423;BMP180;16399;51.686;8.684;2023-04-28T06:08:00;99532.00;;;9.90
29423;BMP180;16399;51.686;8.684;2023-04-28T06:11:04;99526.00;;;10.00
29423;BMP180;16399;51.686;8.684;2023-04-28T06:14:06;99548.00;;;10.10
29423;BMP180;16399;51.686;8.684;2023-04-28T06:17:09;99538.00;;;10.10
29423;BMP180;16399;51.686;8.684;2023-04-28T06:20:12;99543.00;;;10.20
29423;BMP180;16399;51.686;8.684;2023-04-28T06:23:14;99543.00;;;10.20
29423;BMP180;16399;51.686;8.684;2023-04-28T06:26:16;99541.00;;;10.20
29423;BMP180;16399;51.686;8.684;2023-04-28T06:29:19;99537.00;;;10.20
29423;BMP180;16399;51.686;8.684;2023-04-28T06:32:22;99539.00;;;10.10
29423;BMP180;16399;51.686;8.684;2023-04-28T06:35:25;99537.00;;;10.10
29423;BMP180;16399;51.686;8.684;2023-04-28T06:38:27;99544.00;;;10.20
29423;BMP180;16399;51.686;8.684;2023-04-28T06:41:29;99544.00;;;10.20
29423;BMP180;16399;51.686;8.684;2023-04-28T06:44:32;99535.00;;;10.20
29423;BMP180;16399;51.686;8.684;2023-04-28T06:47:34;99537.00;;;10.20
29423;BMP180;16399;51.686;8.684;2023-04-28T06:50:37;99513.00;;;10.30
29423;BMP180;16399;51.686;8.684;2023-04-28T06:53:40;99501.00;;;10.40
29423;BMP180;16399;51.686;8.684;2023-04-28T06:56:42;99492.00;;;10.50
29423;BMP180;16399;51.686;8.684;2023-04-28T06:59:44;99478.00;;;10.70
29423;BMP180;16399;51.686;8.684;2023-04-28T07:02:47;99471.00;;;10.70
29423;BMP180;16399;51.686;8.684;2023-04-28T07:05:49;99476.00;;;10.90
29423;BMP180;16399;51.686;8.684;2023-04-28T07:08:52;99474.00;;;11.00
29423;BMP180;16399;51.686;8.684;2023-04-28T07:11:54;99476.00;;;11.00
29423;BMP180;16399;51.686;8.684;2023-04-28T07:14:58;99468.00;;;11.10
29423;BMP180;16399;51.686;8.684;2023-04-28T07:18:00;99483.00;;;11.30
29423;BMP180;16399;51.686;8.684;2023-04-28T07:21:03;99476.00;;;11.50
29423;BMP180;16399;51.686;8.684;2023-04-28T07:24:05;99481.00;;;11.70
29423;BMP180;16399;51.686;8.684;2023-04-28T07:27:07;99477.00;;;11.70
29423;BMP180;16399;51.686;8.684;2023-04-28T07:30:10;99489.00;;;11.60
29423;BMP180;16399;51.686;8.684;2023-04-28T07:33:13;99467.00;;;11.60
29423;BMP180;16399;51.686;8.684;2023-04-28T07:36:15;99470.00;;;11.60
29423;BMP180;16399;51.686;8.684;2023-04-28T07:39:18;99466.00;;;11.60
29423;BMP180;16399;51.686;8.684;2023-04-28T07:42:20;99460.00;;;11.70
29423;BMP180;16399;51.686;8.684;2023-04-28T07:45:22;99456.00;;;11.70
29423;BMP180;16399;51.686;8.684;2023-04-28T07:48:24;99447.00;;;11.80
29423;BMP180;16399;51.686;8.684;2023-04-28T07:51:27;99448.00;;;11.90
29423;BMP180;16399;51.686;8.684;2023-04-28T07:54:29;99446.00;;;12.00
29423;BMP180;16399;51.686;8.684;2023-04-28T07:57:32;99440.00;;;12.00
29423;BMP180;16399;51.686;8.684;2023-04-28T08:00:34;99440.00;;;12.20
29423;BMP180;16399;51.686;8.684;2023-04-28T08:03:36;99437.00;;;12.30
29423;BMP180;16399;51.686;8.684;2023-04-28T08:06:39;99439.00;;;12.30
29423;BMP180;16399;51.686;8.684;2023-04-28T08:09:41;99428.00;;;12.40
29423;BMP180;16399;51.686;8.684;2023-04-28T08:12:45;99439.00;;;12.30
29423;BMP180;16399;51.686;8.684;2023-04-28T08:15:48;99433.00;;;12.20
29423;BMP180;16399;51.686;8.684;2023-04-28T08:18:51;99425.00;;;12.20
29423;BMP180;16399;51.686;8.684;2023-04-28T08:21:54;99411.00;;;12.20
29423;BMP180;16399;51.686;8.684;2023-04-28T08:24:56;99420.00;;;12.20
29423;BMP180;16399;51.686;8.684;2023-04-28T08:27:58;99422.00;;;12.30
29423;BMP180;16399;51.686;8.684;2023-04-28T08:31:01;99419.00;;;12.30
29423;BMP180;16399;51.686;8.684;2023-04-28T08:34:05;99418.00;;;12.30
29423;BMP180;16399;51.686;8.684;2023-04-28T08:37:07;99406.00;;;12.30
29423;BMP180;16399;51.686;8.684;2023-04-28T08:40:10;99399.00;;;12.20
29423;BMP180;16399;51.686;8.684;2023-04-28T08:43:12;99412.00;;;12.20
29423;BMP180;16399;51.686;8.684;2023-04-28T08:46:15;99410.00;;;12.20
29423;BMP180;16399;51.686;8.684;2023-04-28T08:49:21;99413.00;;;12.20
29423;BMP180;16399;51.686;8.684;2023-04-28T08:52:25;99415.00;;;12.10
29423;BMP180;16399;51.686;8.684;2023-04-28T08:55:28;99424.00;;;12.10
29423;BMP180;16399;51.686;8.684;2023-04-28T08:58:30;99437.00;;;12.10
29423;BMP180;16399;51.686;8.684;2023-04-28T09:01:33;99426.00;;;12.00
29423;BMP180;16399;51.686;8.684;2023-04-28T09:04:36;99434.00;;;12.00
29423;BMP180;16399;51.686;8.684;2023-04-28T09:07:40;99431.00;;;12.00
29423;BMP180;16399;51.686;8.684;2023-04-28T09:10:42;99424.00;;;12.00
29423;BMP180;16399;51.686;8.684;2023-04-28T09:13:44;99430.00;;;12.00
29423;BMP180;16399;51.686;8.684;2023-04-28T09:16:47;99438.00;;;12.10
29423;BMP180;16399;51.686;8.684;2023-04-28T09:19:49;99422.00;;;12.10
29423;BMP180;16399;51.686;8.684;2023-04-28T09:22:53;99435.00;;;12.30
29423;BMP180;16399;51.686;8.684;2023-04-28T09:26:03;99436.00;;;12.40
29423;BMP180;16399;51.686;8.684;2023-04-28T09:29:12;99437.00;;;12.40
29423;BMP180;16399;51.686;8.684;2023-04-28T09:32:17;99433.00;;;12.50
29423;BMP180;16399;51.686;8.684;2023-04-28T09:35:37;99428.00;;;12.60
29423;BMP180;16399;51.686;8.684;2023-04-28T09:38:24;99418.00;;;12.70
29423;BMP180;16399;51.686;8.684;2023-04-28T09:41:41;99418.00;;;12.80
29423;BMP180;16399;51.686;8.684;2023-04-28T09:44:51;99420.00;;;12.80
29423;BMP180;16399;51.686;8.684;2023-04-28T09:47:49;99422.00;;;12.70
29423;BMP180;16399;51.686;8.684;2023-04-28T09:50:52;99432.00;;;12.80
29423;BMP180;16399;51.686;8.684;2023-04-28T09:53:59;99409.00;;;12.70
29423;BMP180;16399;51.686;8.684;2023-04-28T09:57:02;99418.00;;;12.90
29423;BMP180;16399;51.686;8.684;2023-04-28T10:00:06;99422.00;;;12.90
29423;BMP180;16399;51.686;8.684;2023-04-28T10:03:09;99414.00;;;13.00
29423;BMP180;16399;51.686;8.684;2023-04-28T10:06:12;99393.00;;;13.10
29423;BMP180;16399;51.686;8.684;2023-04-28T10:09:14;99393.00;;;13.30
29423;BMP180;16399;51.686;8.684;2023-04-28T10:12:19;99394.00;;;13.50
29423;BMP180;16399;51.686;8.684;2023-04-28T10:15:22;99385.00;;;13.70
29423;BMP180;16399;51.686;8.684;2023-04-28T10:18:25;99376.00;;;13.90
29423;BMP180;16399;51.686;8.684;2023-04-28T10:21:28;99370.00;;;14.20
29423;BMP180;16399;51.686;8.684;2023-04-28T10:24:32;99374.00;;;14.40
29423;BMP180;16399;51.686;8.684;2023-04-28T10:27:35;99370.00;;;14.60
29423;BMP180;16399;51.686;8.684;2023-04-28T10:30:38;99362.00;;;14.80
29423;BMP180;16399;51.686;8.684;2023-04-28T10:33:40;99358.00;;;15.00
29423;BMP180;16399;51.686;8.684;2023-04-28T10:36:51;99350.00;;;15.30
29423;BMP180;16399;51.686;8.684;2023-04-28T10:43:36;99338.00;;;16.30
29423;BMP180;16399;51.686;8.684;2023-04-28T10:47:02;99333.00;;;16.70
29423;BMP180;16399;51.686;8.684;2023-04-28T10:50:05;99330.00;;;17.20
29423;BMP180;16399;51.686;8.684;2023-04-28T10:53:08;99330.00;;;17.40
29423;BMP180;16399;51.686;8.684;2023-04-28T10:56:24;99326.00;;;17.70
29423;BMP180;16399;51.686;8.684;2023-04-28T10:59:27;99325.00;;;17.70
29423;BMP180;16399;51.686;8.684;2023-04-28T11:02:37;99331.00;;;17.40
29423;BMP180;16399;51.686;8.684;2023-04-28T11:06:11;99328.00;;;17.40
29423;BMP180;16399;51.686;8.684;2023-04-28T11:08:46;99337.00;;;17.30
29423;BMP180;16399;51.686;8.684;2023-04-28T11:15:12;99333.00;;;17.00
29423;BMP180;16399;51.686;8.684;2023-04-28T11:18:16;99322.00;;;17.00
29423;BMP180;16399;51.686;8.684;2023-04-28T11:21:21;99316.00;;;17.10
29423;BMP180;16399;51.686;8.684;2023-04-28T11:24:25;99325.00;;;17.20
29423;BMP180;16399;51.686;8.684;2023-04-28T11:27:31;99316.00;;;17.30
29423;BMP180;16399;51.686;8.684;2023-04-28T11:30:34;99317.00;;;17.30
29423;BMP180;16399;51.686;8.684;2023-04-28T11:33:37;99313.00;;;17.40
29423;BMP180;16399;51.686;8.684;2023-04-28T11:36:40;99306.00;;;17.40
29423;BMP180;16399;51.686;8.684;2023-04-28T11:39:43;99312.00;;;17.40
29423;BMP180;16399;51.686;8.684;2023-04-28T11:42:48;99326.00;;;17.40
29423;BMP180;16399;51.686;8.684;2023-04-28T11:45:51;99314.00;;;17.40
29423;BMP180;16399;51.686;8.684;2023-04-28T11:49:01;99323.00;;;17.50
29423;BMP180;16399;51.686;8.684;2023-04-28T11:52:06;99312.00;;;17.40
29423;BMP180;16399;51.686;8.684;2023-04-28T11:55:10;99311.00;;;17.30
29423;BMP180;16399;51.686;8.684;2023-04-28T11:58:21;99306.00;;;17.40
29423;BMP180;16399;51.686;8.684;2023-04-28T12:01:28;99299.00;;;17.40
29423;BMP180;16399;51.686;8.684;2023-04-28T12:04:32;99298.00;;;17.40
29423;BMP180;16399;51.686;8.684;2023-04-28T12:07:42;99294.00;;;17.20
29423;BMP180;16399;51.686;8.684;2023-04-28T12:14:09;99297.00;;;17.10
29423;BMP180;16399;51.686;8.684;2023-04-28T12:17:34;99311.00;;;17.20
29423;BMP180;16399;51.686;8.684;2023-04-28T12:20:35;99293.00;;;17.10
29423;BMP180;16399;51.686;8.684;2023-04-28T12:23:38;99294.00;;;17.30
29423;BMP180;16399;51.686;8.684;2023-04-28T12:26:44;99286.00;;;17.20
29423;BMP180;16399;51.686;8.684;2023-04-28T12:29:47;99287.00;;;17.30
29423;BMP180;16399;51.686;8.684;2023-04-28T12:32:50;99288.00;;;17.40
29423;BMP180;16399;51.686;8.684;2023-04-28T12:35:53;99283.00;;;17.40
29423;BMP180;16399;51.686;8.684;2023-04-28T12:38:56;99270.00;;;17.60
29423;BMP180;16399;51.686;8.684;2023-04-28T12:41:59;99285.00;;;17.70
29423;BMP180;16399;51.686;8.684;2023-04-28T12:45:03;99296.00;;;17.70
29423;BMP180;16399;51.686;8.684;2023-04-28T12:48:06;99305.00;;;17.50
29423;BMP180;16399;51.686;8.684;2023-04-28T12:51:09;99304.00;;;17.40
29423;BMP180;16399;51.686;8.684;2023-04-28T12:54:13;99307.00;;;17.20
29423;BMP180;16399;51.686;8.684;2023-04-28T12:57:17;99304.00;;;17.20
29423;BMP180;16399;51.686;8.684;2023-04-28T13:00:20;99293.00;;;17.20
29423;BMP180;16399;51.686;8.684;2023-04-28T13:03:23;99293.00;;;17.20
29423;BMP180;16399;51.686;8.684;2023-04-28T13:06:26;99300.00;;;17.20
29423;BMP180;16399;51.686;8.684;2023-04-28T13:09:29;99299.00;;;17.10
29423;BMP180;16399;51.686;8.684;2023-04-28T13:12:31;99308.00;;;17.00
29423;BMP180;16399;51.686;8.684;2023-04-28T13:15:34;99298.00;;;17.00
29423;BMP180;16399;51.686;8.684;2023-04-28T13:18:37;99298.00;;;17.00
29423;BMP180;16399;51.686;8.684;2023-04-28T13:21:40;99287.00;;;17.10
29423;BMP180;16399;51.686;8.684;2023-04-28T13:24:43;99284.00;;;17.10
29423;BMP180;16399;51.686;8.684;2023-04-28T13:27:45;99280.00;;;17.30
29423;BMP180;16399;51.686;8.684;2023-04-28T13:30:48;99289.00;;;17.30
29423;BMP180;16399;51.686;8.684;2023-04-28T13:33:50;99289.00;;;17.20
29423;BMP180;16399;51.686;8.684;2023-04-28T13:36:53;99300.00;;;17.20
29423;BMP180;16399;51.686;8.684;2023-04-28T13:39:55;99284.00;;;17.10
29423;BMP180;16399;51.686;8.684;2023-04-28T13:42:59;99294.00;;;16.90
29423;BMP180;16399;51.686;8.684;2023-04-28T13:46:02;99304.00;;;16.70
29423;BMP180;16399;51.686;8.684;2023-04-28T13:49:06;99299.00;;;16.70
29423;BMP180;16399;51.686;8.684;2023-04-28T13:52:08;99294.00;;;16.60
29423;BMP180;16399;51.686;8.684;2023-04-28T13:55:11;99289.00;;;16.60
29423;BMP180;16399;51.686;8.684;2023-04-28T13:58:13;99299.00;;;16.60
29423;BMP180;16399;51.686;8.684;2023-04-28T14:01:15;99305.00;;;16.40
29423;BMP180;16399;51.686;8.684;2023-04-28T14:04:18;99305.00;;;16.40
29423;BMP180;16399;51.686;8.684;2023-04-28T14:07:20;99307.00;;;16.20
29423;BMP180;16399;51.686;8.684;2023-04-28T14:10:22;99305.00;;;16.10
29423;BMP180;16399;51.686;8.684;2023-04-28T14:13:25;99310.00;;;16.10
29423;BMP180;16399;51.686;8.684;2023-04-28T14:16:27;99297.00;;;16.10
29423;BMP180;16399;51.686;8.684;2023-04-28T14:19:30;99297.00;;;16.10
29423;BMP180;16399;51.686;8.684;2023-04-28T14:22:32;99313.00;;;16.10
29423;BMP180;16399;51.686;8.684;2023-04-28T14:25:35;99306.00;;;15.90
29423;BMP180;16399;51.686;8.684;2023-04-28T14:28:37;99315.00;;;15.80
29423;BMP180;16399;51.686;8.684;2023-04-28T14:31:40;99316.00;;;15.60
29423;BMP180;16399;51.686;8.684;2023-04-28T14:34:42;99311.00;;;15.50
29423;BMP180;16399;51.686;8.684;2023-04-28T14:37:44;99316.00;;;15.40
29423;BMP180;16399;51.686;8.684;2023-04-28T14:40:47;99307.00;;;15.30
29423;BMP180;16399;51.686;8.684;2023-04-28T14:43:49;99314.00;;;15.20
29423;BMP180;16399;51.686;8.684;2023-04-28T14:46:51;99306.00;;;15.10
29423;BMP180;16399;51.686;8.684;2023-04-28T14:49:54;99295.00;;;15.10
29423;BMP180;16399;51.686;8.684;2023-04-28T14:52:56;99292.00;;;15.10
29423;BMP180;16399;51.686;8.684;2023-04-28T14:56:00;99289.00;;;15.20
29423;BMP180;16399;51.686;8.684;2023-04-28T14:59:02;99288.00;;;15.30
29423;BMP180;16399;51.686;8.684;2023-04-28T15:02:05;99279.00;;;15.40
29423;BMP180;16399;51.686;8.684;2023-04-28T15:05:08;99272.00;;;15.50
29423;BMP180;16399;51.686;8.684;2023-04-28T15:08:11;99256.00;;;15.80
29423;BMP180;16399;51.686;8.684;2023-04-28T15:11:14;99234.00;;;16.00
29423;BMP180;16399;51.686;8.684;2023-04-28T15:14:16;99241.00;;;16.50
29423;BMP180;16399;51.686;8.684;2023-04-28T15:17:19;99230.00;;;17.00
29423;BMP180;16399;51.686;8.684;2023-04-28T15:20:23;99228.00;;;17.50
29423;BMP180;16399;51.686;8.684;2023-04-28T15:23:25;99224.00;;;17.70
29423;BMP180;16399;51.686;8.684;2023-04-28T15:26:28;99221.00;;;17.70
29423;BMP180;16399;51.686;8.684;2023-04-28T15:29:30;99230.00;;;17.70
29423;BMP180;16399;51.686;8.684;2023-04-28T15:32:33;99230.00;;;17.60
29423;BMP180;16399;51.686;8.684;2023-04-28T15:35:35;99235.00;;;17.50
29423;BMP180;16399;51.686;8.684;2023-04-28T15:38:38;99234.00;;;17.50
29423;BMP180;16399;51.686;8.684;2023-04-28T15:41:42;99232.00;;;17.50
29423;BMP180;16399;51.686;8.684;2023-04-28T15:44:44;99239.00;;;17.60
29423;BMP180;16399;51.686;8.684;2023-04-28T15:47:47;99242.00;;;17.40
29423;BMP180;16399;51.686;8.684;2023-04-28T15:50:50;99246.00;;;17.40
29423;BMP180;16399;51.686;8.684;2023-04-28T15:53:52;99230.00;;;17.30
29423;BMP180;16399;51.686;8.684;2023-04-28T15:56:55;99236.00;;;17.20
29423;BMP180;16399;51.686;8.684;2023-04-28T15:59:58;99233.00;;;17.10
29423;BMP180;16399;51.686;8.684;2023-04-28T16:03:00;99237.00;;;17.10
29423;BMP180;16399;51.686;8.684;2023-04-28T16:06:03;99227.00;;;17.00
29423;BMP180;16399;51.686;8.684;2023-04-28T16:09:06;99238.00;;;17.00
29423;BMP180;16399;51.686;8.684;2023-04-28T16:12:08;99226.00;;;17.00
29423;BMP180;16399;51.686;8.684;2023-04-28T16:15:11;99223.00;;;17.00
29423;BMP180;16399;51.686;8.684;2023-04-28T16:18:14;99227.00;;;17.00
29423;BMP180;16399;51.686;8.684;2023-04-28T16:21:17;99233.00;;;17.00
29423;BMP180;16399;51.686;8.684;2023-04-28T16:24:19;99232.00;;;17.00
29423;BMP180;16399;51.686;8.684;2023-04-28T16:27:22;99230.00;;;17.00
29423;BMP180;16399;51.686;8.684;2023-04-28T16:30:25;99224.00;;;16.90
29423;BMP180;16399;51.686;8.684;2023-04-28T16:33:27;99224.00;;;16.90
29423;BMP180;16399;51.686;8.684;2023-04-28T16:36:30;99230.00;;;16.90
29423;BMP180;16399;51.686;8.684;2023-04-28T16:39:35;99238.00;;;16.80
29423;BMP180;16399;51.686;8.684;2023-04-28T16:42:38;99233.00;;;16.80
29423;BMP180;16399;51.686;8.684;2023-04-28T16:45:42;99234.00;;;16.70
29423;BMP180;16399;51.686;8.684;2023-04-28T16:48:44;99247.00;;;16.70
29423;BMP180;16399;51.686;8.684;2023-04-28T16:52:00;99236.00;;;16.60
29423;BMP180;16399;51.686;8.684;2023-04-28T16:55:03;99238.00;;;16.60
29423;BMP180;16399;51.686;8.684;2023-04-28T16:58:05;99237.00;;;16.50
29423;BMP180;16399;51.686;8.684;2023-04-28T17:01:08;99235.00;;;16.40
29423;BMP180;16399;51.686;8.684;2023-04-28T17:04:11;99230.00;;;16.40
29423;BMP180;16399;51.686;8.684;2023-04-28T17:07:13;99231.00;;;16.50
29423;BMP180;16399;51.686;8.684;2023-04-28T17:10:16;99233.00;;;16.50
29423;BMP180;16399;51.686;8.684;2023-04-28T17:13:18;99233.00;;;16.50
29423;BMP180;16399;51.686;8.684;2023-04-28T17:16:20;99224.00;;;16.50
29423;BMP180;16399;51.686;8.684;2023-04-28T17:19:23;99229.00;;;16.50
29423;BMP180;16399;51.686;8.684;2023-04-28T17:22:25;99217.00;;;16.50
29423;BMP180;16399;51.686;8.684;2023-04-28T17:25:28;99211.00;;;16.60
29423;BMP180;16399;51.686;8.684;2023-04-28T17:28:30;99226.00;;;16.60
29423;BMP180;16399;51.686;8.684;2023-04-28T17:31:33;99224.00;;;16.70
29423;BMP180;16399;51.686;8.684;2023-04-28T17:34:36;99234.00;;;16.70
29423;BMP180;16399;51.686;8.684;2023-04-28T17:37:38;99232.00;;;16.70
29423;BMP180;16399;51.686;8.684;2023-04-28T17:40:41;99233.00;;;16.60
29423;BMP180;16399;51.686;8.684;2023-04-28T17:43:45;99238.00;;;16.50
29423;BMP180;16399;51.686;8.684;2023-04-28T17:46:48;99241.00;;;16.40
29423;BMP180;16399;51.686;8.684;2023-04-28T17:49:50;99244.00;;;16.30
29423;BMP180;16399;51.686;8.684;2023-04-28T17:52:52;99248.00;;;16.30